sensor_id;sensor_type;location;lat;lon;timestamp;temperature;humidity
15156;DHT22;7678;50.058;8.306;2022-10-31T00:02:13;10.60;99.90
15156;DHT22;7678;50.058;8.306;2022-10-31T00:04:42;10.60;99.90
15156;DHT22;7678;50.058;8.306;2022-10-31T00:07:10;10.60;99.90
15156;DHT22;7678;50.058;8.306;2022-10-31T00:09:45;10.60;99.90
15156;DHT22;7678;50.058;8.306;2022-10-31T00:12:14;10.60;99.90
15156;DHT22;7678;50.058;8.306;2022-10-31T00:14:45;10.60;99.90
15156;DHT22;7678;50.058;8.306;2022-10-31T00:17:15;10.80;99.90
15156;DHT22;7678;50.058;8.306;2022-10-31T00:19:43;10.50;99.90
15156;DHT22;7678;50.058;8.306;2022-10-31T00:22:15;10.60;99.90
15156;DHT22;7678;50.058;8.306;2022-10-31T00:24:43;10.60;99.90
15156;DHT22;7678;50.058;8.306;2022-10-31T00:27:13;10.50;99.90
15156;DHT22;7678;50.058;8.306;2022-10-31T00:29:41;10.60;99.90
15156;DHT22;7678;50.058;8.306;2022-10-31T00:32:09;10.50;99.90
15156;DHT22;7678;50.058;8.306;2022-10-31T00:34:37;10.40;99.90
15156;DHT22;7678;50.058;8.306;2022-10-31T00:37:05;10.40;99.90
15156;DHT22;7678;50.058;8.306;2022-10-31T00:39:35;10.40;99.90
15156;DHT22;7678;50.058;8.306;2022-10-31T00:42:03;10.50;99.90
15156;DHT22;7678;50.058;8.306;2022-10-31T00:44:33;10.50;99.90
15156;DHT22;7678;50.058;8.306;2022-10-31T00:47:03;10.60;99.90
15156;DHT22;7678;50.058;8.306;2022-10-31T00:49:33;10.60;99.90
15156;DHT22;7678;50.058;8.306;2022-10-31T00:52:01;10.50;99.90
15156;DHT22;7678;50.058;8.306;2022-10-31T00:54:29;10.60;99.90
15156;DHT22;7678;50.058;8.306;2022-10-31T00:56:58;10.70;99.90
15156;DHT22;7678;50.058;8.306;2022-10-31T00:59:26;10.70;99.90
15156;DHT22;7678;50.058;8.306;2022-10-31T01:01:55;10.50;99.90
15156;DHT22;7678;50.058;8.306;2022-10-31T01:04:23;10.50;99.90
15156;DHT22;7678;50.058;8.306;2022-10-31T01:06:51;10.40;99.90
15156;DHT22;7678;50.058;8.306;2022-10-31T01:09:19;10.50;99.90
15156;DHT22;7678;50.058;8.306;2022-10-31T01:11:47;10.40;99.90
15156;DHT22;7678;50.058;8.306;2022-10-31T01:14:15;10.40;99.90
15156;DHT22;7678;50.058;8.306;2022-10-31T01:16:42;10.50;99.90
15156;DHT22;7678;50.058;8.306;2022-10-31T01:19:12;10.40;99.90
15156;DHT22;7678;50.058;8.306;2022-10-31T01:21:40;10.50;99.90
15156;DHT22;7678;50.058;8.306;2022-10-31T01:24:08;10.70;99.90
15156;DHT22;7678;50.058;8.306;2022-10-31T01:26:36;10.70;99.90
15156;DHT22;7678;50.058;8.306;2022-10-31T01:29:07;10.60;99.90
15156;DHT22;7678;50.058;8.306;2022-10-31T01:31:36;10.70;99.90
15156;DHT22;7678;50.058;8.306;2022-10-31T01:34:04;10.50;99.90
15156;DHT22;7678;50.058;8.306;2022-10-31T01:36:36;10.50;99.90
15156;DHT22;7678;50.058;8.306;2022-10-31T01:39:07;10.50;99.90
15156;DHT22;7678;50.058;8.306;2022-10-31T01:41:39;10.50;99.90
15156;DHT22;7678;50.058;8.306;2022-10-31T01:47:14;10.40;99.90
15156;DHT22;7678;50.058;8.306;2022-10-31T01:49:46;10.40;99.90
15156;DHT22;7678;50.058;8.306;2022-10-31T01:52:20;10.40;99.90
15156;DHT22;7678;50.058;8.306;2022-10-31T01:54:51;10.50;99.90
15156;DHT22;7678;50.058;8.306;2022-10-31T01:57:22;10.50;99.90
15156;DHT22;7678;50.058;8.306;2022-10-31T01:59:53;10.40;99.90
15156;DHT22;7678;50.058;8.306;2022-10-31T02:02:24;10.30;99.90
15156;DHT22;7678;50.058;8.306;2022-10-31T02:04:53;10.20;99.90
15156;DHT22;7678;50.058;8.306;2022-10-31T02:07:27;10.30;99.90
15156;DHT22;7678;50.058;8.306;2022-10-31T02:09:57;10.20;99.90
15156;DHT22;7678;50.058;8.306;2022-10-31T02:12:26;10.20;99.90
15156;DHT22;7678;50.058;8.306;2022-10-31T02:14:54;10.30;99.90
15156;DHT22;7678;50.058;8.306;2022-10-31T02:17:22;10.20;99.90
15156;DHT22;7678;50.058;8.306;2022-10-31T02:19:56;10.20;99.90
15156;DHT22;7678;50.058;8.306;2022-10-31T02:22:35;10.10;99.90
15156;DHT22;7678;50.058;8.306;2022-10-31T02:25:23;10.00;99.90
15156;DHT22;7678;50.058;8.306;2022-10-31T02:28:10;10.20;99.90
15156;DHT22;7678;50.058;8.306;2022-10-31T02:30:53;10.10;99.90
15156;DHT22;7678;50.058;8.306;2022-10-31T02:33:25;10.10;99.90
15156;DHT22;7678;50.058;8.306;2022-10-31T02:36:02;10.00;99.90
15156;DHT22;7678;50.058;8.306;2022-10-31T02:38:40;10.00;99.90
15156;DHT22;7678;50.058;8.306;2022-10-31T02:41:16;10.10;99.90
15156;DHT22;7678;50.058;8.306;2022-10-31T02:43:56;10.10;99.90
15156;DHT22;7678;50.058;8.306;2022-10-31T02:46:32;10.20;99.90
15156;DHT22;7678;50.058;8.306;2022-10-31T02:49:05;10.20;99.90
15156;DHT22;7678;50.058;8.306;2022-10-31T02:51:35;10.10;99.90
15156;DHT22;7678;50.058;8.306;2022-10-31T02:54:03;10.10;99.90
15156;DHT22;7678;50.058;8.306;2022-10-31T02:56:33;10.20;99.90
15156;DHT22;7678;50.058;8.306;2022-10-31T02:59:04;10.10;99.90
15156;DHT22;7678;50.058;8.306;2022-10-31T03:04:55;10.10;99.90
15156;DHT22;7678;50.058;8.306;2022-10-31T03:07:32;10.00;99.90
15156;DHT22;7678;50.058;8.306;2022-10-31T03:10:13;10.00;99.90
15156;DHT22;7678;50.058;8.306;2022-10-31T03:12:49;10.00;99.90
15156;DHT22;7678;50.058;8.306;2022-10-31T03:15:27;9.90;99.90
15156;DHT22;7678;50.058;8.306;2022-10-31T03:18:00;9.90;99.90
15156;DHT22;7678;50.058;8.306;2022-10-31T03:20:36;9.90;99.90
15156;DHT22;7678;50.058;8.306;2022-10-31T03:23:07;9.90;99.90
15156;DHT22;7678;50.058;8.306;2022-10-31T03:25:38;9.70;99.90
15156;DHT22;7678;50.058;8.306;2022-10-31T03:28:12;9.70;99.90
15156;DHT22;7678;50.058;8.306;2022-10-31T03:30:43;9.80;99.90
15156;DHT22;7678;50.058;8.306;2022-10-31T03:33:16;9.80;99.90
15156;DHT22;7678;50.058;8.306;2022-10-31T03:35:48;9.70;99.90
15156;DHT22;7678;50.058;8.306;2022-10-31T03:38:19;9.70;99.90
15156;DHT22;7678;50.058;8.306;2022-10-31T03:40:51;9.80;99.90
15156;DHT22;7678;50.058;8.306;2022-10-31T03:43:23;9.80;99.90
15156;DHT22;7678;50.058;8.306;2022-10-31T03:45:52;9.60;99.90
15156;DHT22;7678;50.058;8.306;2022-10-31T03:48:20;9.60;99.90
15156;DHT22;7678;50.058;8.306;2022-10-31T03:50:58;9.60;99.90
15156;DHT22;7678;50.058;8.306;2022-10-31T03:53:32;9.60;99.90
15156;DHT22;7678;50.058;8.306;2022-10-31T03:56:05;9.70;99.90
15156;DHT22;7678;50.058;8.306;2022-10-31T03:58:39;9.70;99.90
15156;DHT22;7678;50.058;8.306;2022-10-31T04:01:11;9.70;99.90
15156;DHT22;7678;50.058;8.306;2022-10-31T04:03:43;9.80;99.90
15156;DHT22;7678;50.058;8.306;2022-10-31T04:06:16;9.90;99.90
15156;DHT22;7678;50.058;8.306;2022-10-31T04:08:48;9.80;99.90
15156;DHT22;7678;50.058;8.306;2022-10-31T04:11:18;9.80;99.90
15156;DHT22;7678;50.058;8.306;2022-10-31T04:13:48;9.80;99.90
15156;DHT22;7678;50.058;8.306;2022-10-31T04:16:17;9.70;99.90
15156;DHT22;7678;50.058;8.306;2022-10-31T04:18:49;9.70;99.90
15156;DHT22;7678;50.058;8.306;2022-10-31T04:21:18;9.90;99.90
15156;DHT22;7678;50.058;8.306;2022-10-31T04:23:46;9.90;99.90
15156;DHT22;7678;50.058;8.306;2022-10-31T04:26:14;9.80;99.90
15156;DHT22;7678;50.058;8.306;2022-10-31T04:28:45;9.80;99.90
15156;DHT22;7678;50.058;8.306;2022-10-31T04:31:15;9.70;99.90
15156;DHT22;7678;50.058;8.306;2022-10-31T04:33:44;9.80;99.90
15156;DHT22;7678;50.058;8.306;2022-10-31T04:36:12;9.80;99.90
15156;DHT22;7678;50.058;8.306;2022-10-31T04:38:42;9.80;99.90
15156;DHT22;7678;50.058;8.306;2022-10-31T04:41:14;9.80;99.90
15156;DHT22;7678;50.058;8.306;2022-10-31T04:43:44;9.70;99.90
15156;DHT22;7678;50.058;8.306;2022-10-31T04:46:12;9.70;99.90
15156;DHT22;7678;50.058;8.306;2022-10-31T04:48:40;9.60;99.90
15156;DHT22;7678;50.058;8.306;2022-10-31T04:51:08;9.70;99.90
15156;DHT22;7678;50.058;8.306;2022-10-31T04:53:37;9.60;99.90
15156;DHT22;7678;50.058;8.306;2022-10-31T04:56:07;9.70;99.90
15156;DHT22;7678;50.058;8.306;2022-10-31T04:58:35;9.70;99.90
15156;DHT22;7678;50.058;8.306;2022-10-31T05:01:03;9.60;99.90
15156;DHT22;7678;50.058;8.306;2022-10-31T05:03:31;9.60;99.90
15156;DHT22;7678;50.058;8.306;2022-10-31T05:05:59;9.60;99.90
15156;DHT22;7678;50.058;8.306;2022-10-31T05:08:33;9.60;99.90
15156;DHT22;7678;50.058;8.306;2022-10-31T05:11:01;9.70;99.90
15156;DHT22;7678;50.058;8.306;2022-10-31T05:13:31;9.70;99.90
15156;DHT22;7678;50.058;8.306;2022-10-31T05:16:06;9.70;99.90
15156;DHT22;7678;50.058;8.306;2022-10-31T05:18:34;9.60;99.90
15156;DHT22;7678;50.058;8.306;2022-10-31T05:21:02;9.60;99.90
15156;DHT22;7678;50.058;8.306;2022-10-31T05:23:30;9.70;99.90
15156;DHT22;7678;50.058;8.306;2022-10-31T05:25:58;9.80;99.90
15156;DHT22;7678;50.058;8.306;2022-10-31T05:28:28;9.70;99.90
15156;DHT22;7678;50.058;8.306;2022-10-31T05:30:57;9.70;99.90
15156;DHT22;7678;50.058;8.306;2022-10-31T05:33:25;9.70;99.90
15156;DHT22;7678;50.058;8.306;2022-10-31T05:35:52;9.70;99.90
15156;DHT22;7678;50.058;8.306;2022-10-31T05:38:20;9.50;99.90
15156;DHT22;7678;50.058;8.306;2022-10-31T05:40:48;9.50;99.90
15156;DHT22;7678;50.058;8.306;2022-10-31T05:43:16;9.50;99.90
15156;DHT22;7678;50.058;8.306;2022-10-31T05:45:44;9.40;99.90
15156;DHT22;7678;50.058;8.306;2022-10-31T05:48:14;9.40;99.90
15156;DHT22;7678;50.058;8.306;2022-10-31T05:50:41;9.40;99.90
15156;DHT22;7678;50.058;8.306;2022-10-31T05:53:09;9.50;99.90
15156;DHT22;7678;50.058;8.306;2022-10-31T05:55:37;9.50;99.90
15156;DHT22;7678;50.058;8.306;2022-10-31T05:58:07;9.50;99.90
15156;DHT22;7678;50.058;8.306;2022-10-31T06:00:35;9.50;99.90
15156;DHT22;7678;50.058;8.306;2022-10-31T06:03:05;9.50;99.90
15156;DHT22;7678;50.058;8.306;2022-10-31T06:05:36;9.60;99.90
15156;DHT22;7678;50.058;8.306;2022-10-31T06:08:04;9.50;99.90
15156;DHT22;7678;50.058;8.306;2022-10-31T06:10:34;9.60;99.90
15156;DHT22;7678;50.058;8.306;2022-10-31T06:13:02;9.60;99.90
15156;DHT22;7678;50.058;8.306;2022-10-31T06:15:30;9.50;99.90
15156;DHT22;7678;50.058;8.306;2022-10-31T06:17:59;9.50;99.90
15156;DHT22;7678;50.058;8.306;2022-10-31T06:20:28;9.50;99.90
15156;DHT22;7678;50.058;8.306;2022-10-31T06:23:01;9.50;99.90
15156;DHT22;7678;50.058;8.306;2022-10-31T06:25:30;9.60;99.90
15156;DHT22;7678;50.058;8.306;2022-10-31T06:27:59;9.70;99.90
15156;DHT22;7678;50.058;8.306;2022-10-31T06:30:27;9.80;99.90
15156;DHT22;7678;50.058;8.306;2022-10-31T06:33:03;9.90;99.90
15156;DHT22;7678;50.058;8.306;2022-10-31T06:35:31;9.90;99.90
15156;DHT22;7678;50.058;8.306;2022-10-31T06:38:01;10.00;99.90
15156;DHT22;7678;50.058;8.306;2022-10-31T06:40:30;10.10;99.90
15156;DHT22;7678;50.058;8.306;2022-10-31T06:42:58;10.10;99.90
15156;DHT22;7678;50.058;8.306;2022-10-31T06:45:27;10.20;99.90
15156;DHT22;7678;50.058;8.306;2022-10-31T06:47:56;10.30;99.90
15156;DHT22;7678;50.058;8.306;2022-10-31T06:50:44;10.40;99.90
15156;DHT22;7678;50.058;8.306;2022-10-31T06:53:14;10.40;99.90
15156;DHT22;7678;50.058;8.306;2022-10-31T06:55:42;10.50;99.90
15156;DHT22;7678;50.058;8.306;2022-10-31T06:58:11;10.60;99.90
15156;DHT22;7678;50.058;8.306;2022-10-31T07:00:39;10.70;99.90
15156;DHT22;7678;50.058;8.306;2022-10-31T07:03:12;10.70;99.90
15156;DHT22;7678;50.058;8.306;2022-10-31T07:05:40;10.80;99.90
15156;DHT22;7678;50.058;8.306;2022-10-31T07:08:12;10.80;99.90
15156;DHT22;7678;50.058;8.306;2022-10-31T07:10:42;10.90;99.90
15156;DHT22;7678;50.058;8.306;2022-10-31T07:13:12;10.90;99.90
15156;DHT22;7678;50.058;8.306;2022-10-31T07:15:42;10.90;99.90
15156;DHT22;7678;50.058;8.306;2022-10-31T07:18:11;11.00;99.90
15156;DHT22;7678;50.058;8.306;2022-10-31T07:20:39;11.00;99.90
15156;DHT22;7678;50.058;8.306;2022-10-31T07:23:08;11.20;99.90
15156;DHT22;7678;50.058;8.306;2022-10-31T07:25:37;11.20;99.90
15156;DHT22;7678;50.058;8.306;2022-10-31T07:28:07;11.30;99.90
15156;DHT22;7678;50.058;8.306;2022-10-31T07:30:36;11.30;99.90
15156;DHT22;7678;50.058;8.306;2022-10-31T07:33:04;11.50;99.90
15156;DHT22;7678;50.058;8.306;2022-10-31T07:35:33;11.60;99.90
15156;DHT22;7678;50.058;8.306;2022-10-31T07:38:08;11.70;99.90
15156;DHT22;7678;50.058;8.306;2022-10-31T07:40:36;11.70;99.90
15156;DHT22;7678;50.058;8.306;2022-10-31T07:43:07;11.90;99.90
15156;DHT22;7678;50.058;8.306;2022-10-31T07:45:40;12.00;99.90
15156;DHT22;7678;50.058;8.306;2022-10-31T07:48:08;12.20;99.90
15156;DHT22;7678;50.058;8.306;2022-10-31T07:50:41;12.30;99.90
15156;DHT22;7678;50.058;8.306;2022-10-31T07:53:12;12.40;99.90
15156;DHT22;7678;50.058;8.306;2022-10-31T07:55:41;12.40;99.90
15156;DHT22;7678;50.058;8.306;2022-10-31T07:58:17;12.60;99.90
15156;DHT22;7678;50.058;8.306;2022-10-31T08:00:46;12.60;99.90
15156;DHT22;7678;50.058;8.306;2022-10-31T08:03:16;12.60;99.90
15156;DHT22;7678;50.058;8.306;2022-10-31T08:05:44;12.70;99.90
15156;DHT22;7678;50.058;8.306;2022-10-31T08:08:13;12.70;99.90
15156;DHT22;7678;50.058;8.306;2022-10-31T08:10:41;12.70;99.90
15156;DHT22;7678;50.058;8.306;2022-10-31T08:13:11;12.80;99.90
15156;DHT22;7678;50.058;8.306;2022-10-31T08:15:40;12.80;99.90
15156;DHT22;7678;50.058;8.306;2022-10-31T08:18:11;12.90;99.90
15156;DHT22;7678;50.058;8.306;2022-10-31T08:20:40;13.00;99.90
15156;DHT22;7678;50.058;8.306;2022-10-31T08:23:09;13.00;99.90
15156;DHT22;7678;50.058;8.306;2022-10-31T08:25:38;13.10;99.90
15156;DHT22;7678;50.058;8.306;2022-10-31T08:28:08;13.10;99.90
15156;DHT22;7678;50.058;8.306;2022-10-31T08:30:37;13.10;99.90
15156;DHT22;7678;50.058;8.306;2022-10-31T08:33:10;13.20;99.90
15156;DHT22;7678;50.058;8.306;2022-10-31T08:35:41;13.30;99.90
15156;DHT22;7678;50.058;8.306;2022-10-31T08:38:10;13.30;99.90
15156;DHT22;7678;50.058;8.306;2022-10-31T08:40:41;13.40;99.90
15156;DHT22;7678;50.058;8.306;2022-10-31T08:43:12;13.40;99.90
15156;DHT22;7678;50.058;8.306;2022-10-31T08:45:41;13.40;99.90
15156;DHT22;7678;50.058;8.306;2022-10-31T08:48:12;13.40;99.90
15156;DHT22;7678;50.058;8.306;2022-10-31T08:50:42;13.40;99.90
15156;DHT22;7678;50.058;8.306;2022-10-31T08:53:13;13.40;99.90
15156;DHT22;7678;50.058;8.306;2022-10-31T08:55:42;13.40;99.90
15156;DHT22;7678;50.058;8.306;2022-10-31T08:58:11;13.40;99.90
15156;DHT22;7678;50.058;8.306;2022-10-31T09:00:40;13.60;99.90
15156;DHT22;7678;50.058;8.306;2022-10-31T09:03:12;13.60;99.90
15156;DHT22;7678;50.058;8.306;2022-10-31T09:05:40;13.70;99.90
15156;DHT22;7678;50.058;8.306;2022-10-31T09:08:08;13.80;99.90
15156;DHT22;7678;50.058;8.306;2022-10-31T09:10:44;13.70;99.90
15156;DHT22;7678;50.058;8.306;2022-10-31T09:13:15;13.70;99.90
15156;DHT22;7678;50.058;8.306;2022-10-31T09:15:45;13.70;99.90
15156;DHT22;7678;50.058;8.306;2022-10-31T09:18:16;13.70;99.90
15156;DHT22;7678;50.058;8.306;2022-10-31T09:20:48;13.80;99.90
15156;DHT22;7678;50.058;8.306;2022-10-31T09:23:18;13.80;99.90
15156;DHT22;7678;50.058;8.306;2022-10-31T09:25:50;13.90;99.90
15156;DHT22;7678;50.058;8.306;2022-10-31T09:28:20;14.00;99.90
15156;DHT22;7678;50.058;8.306;2022-10-31T09:30:50;14.10;99.90
15156;DHT22;7678;50.058;8.306;2022-10-31T09:33:20;14.20;99.90
15156;DHT22;7678;50.058;8.306;2022-10-31T09:35:52;14.20;99.90
15156;DHT22;7678;50.058;8.306;2022-10-31T09:38:21;14.00;99.90
15156;DHT22;7678;50.058;8.306;2022-10-31T09:40:55;14.00;99.90
15156;DHT22;7678;50.058;8.306;2022-10-31T09:43:32;14.00;99.90
15156;DHT22;7678;50.058;8.306;2022-10-31T09:46:12;14.20;99.90
15156;DHT22;7678;50.058;8.306;2022-10-31T09:48:54;14.20;99.90
15156;DHT22;7678;50.058;8.306;2022-10-31T09:51:31;14.20;99.90
15156;DHT22;7678;50.058;8.306;2022-10-31T09:54:06;14.20;99.90
15156;DHT22;7678;50.058;8.306;2022-10-31T09:56:37;14.50;99.90
15156;DHT22;7678;50.058;8.306;2022-10-31T09:59:15;14.50;99.90
15156;DHT22;7678;50.058;8.306;2022-10-31T10:01:53;14.50;99.90
15156;DHT22;7678;50.058;8.306;2022-10-31T10:04:33;14.60;99.90
15156;DHT22;7678;50.058;8.306;2022-10-31T10:07:12;14.70;99.90
15156;DHT22;7678;50.058;8.306;2022-10-31T10:09:41;14.70;99.90
15156;DHT22;7678;50.058;8.306;2022-10-31T10:12:33;14.80;99.90
15156;DHT22;7678;50.058;8.306;2022-10-31T10:15:24;14.80;99.90
15156;DHT22;7678;50.058;8.306;2022-10-31T10:18:04;15.00;99.90
15156;DHT22;7678;50.058;8.306;2022-10-31T10:20:42;15.20;99.90
15156;DHT22;7678;50.058;8.306;2022-10-31T10:23:26;15.20;99.90
15156;DHT22;7678;50.058;8.306;2022-10-31T10:26:03;15.10;99.90
15156;DHT22;7678;50.058;8.306;2022-10-31T10:28:40;15.10;99.90
15156;DHT22;7678;50.058;8.306;2022-10-31T10:31:14;15.20;99.90
15156;DHT22;7678;50.058;8.306;2022-10-31T10:33:47;15.20;99.90
15156;DHT22;7678;50.058;8.306;2022-10-31T10:36:28;15.30;99.90
15156;DHT22;7678;50.058;8.306;2022-10-31T10:39:00;15.40;99.90
15156;DHT22;7678;50.058;8.306;2022-10-31T10:41:32;15.50;99.90
15156;DHT22;7678;50.058;8.306;2022-10-31T10:44:01;15.60;99.90
15156;DHT22;7678;50.058;8.306;2022-10-31T10:46:49;15.80;99.90
15156;DHT22;7678;50.058;8.306;2022-10-31T10:49:43;15.90;99.90
15156;DHT22;7678;50.058;8.306;2022-10-31T10:52:22;16.00;99.90
15156;DHT22;7678;50.058;8.306;2022-10-31T10:55:24;16.10;99.90
15156;DHT22;7678;50.058;8.306;2022-10-31T10:57:58;16.20;99.90
15156;DHT22;7678;50.058;8.306;2022-10-31T11:00:30;16.20;99.90
15156;DHT22;7678;50.058;8.306;2022-10-31T11:02:58;16.30;99.90
15156;DHT22;7678;50.058;8.306;2022-10-31T11:05:33;16.40;99.90
15156;DHT22;7678;50.058;8.306;2022-10-31T11:08:03;16.40;99.90
15156;DHT22;7678;50.058;8.306;2022-10-31T11:10:32;16.40;99.90
15156;DHT22;7678;50.058;8.306;2022-10-31T11:13:06;16.50;99.90
15156;DHT22;7678;50.058;8.306;2022-10-31T11:15:37;16.50;99.90
15156;DHT22;7678;50.058;8.306;2022-10-31T11:18:19;16.60;99.90
15156;DHT22;7678;50.058;8.306;2022-10-31T11:20:51;16.50;99.90
15156;DHT22;7678;50.058;8.306;2022-10-31T11:23:24;16.60;99.90
15156;DHT22;7678;50.058;8.306;2022-10-31T11:25:56;16.70;99.90
15156;DHT22;7678;50.058;8.306;2022-10-31T11:28:25;16.70;99.90
15156;DHT22;7678;50.058;8.306;2022-10-31T11:30:57;16.80;99.90
15156;DHT22;7678;50.058;8.306;2022-10-31T11:33:29;16.90;99.90
15156;DHT22;7678;50.058;8.306;2022-10-31T11:35:58;17.00;99.90
15156;DHT22;7678;50.058;8.306;2022-10-31T11:38:33;17.10;99.90
15156;DHT22;7678;50.058;8.306;2022-10-31T11:41:09;17.10;99.90
15156;DHT22;7678;50.058;8.306;2022-10-31T11:43:39;17.20;99.90
15156;DHT22;7678;50.058;8.306;2022-10-31T11:46:18;17.40;99.90
15156;DHT22;7678;50.058;8.306;2022-10-31T11:48:50;17.40;99.90
15156;DHT22;7678;50.058;8.306;2022-10-31T11:51:24;17.30;99.90
15156;DHT22;7678;50.058;8.306;2022-10-31T11:53:57;17.40;99.90
15156;DHT22;7678;50.058;8.306;2022-10-31T11:56:37;17.60;99.90
15156;DHT22;7678;50.058;8.306;2022-10-31T11:59:15;17.70;99.90
15156;DHT22;7678;50.058;8.306;2022-10-31T12:01:52;17.80;99.90
15156;DHT22;7678;50.058;8.306;2022-10-31T12:04:31;17.90;99.90
15156;DHT22;7678;50.058;8.306;2022-10-31T12:07:00;17.90;99.90
15156;DHT22;7678;50.058;8.306;2022-10-31T12:09:33;18.10;99.90
15156;DHT22;7678;50.058;8.306;2022-10-31T12:12:41;18.10;99.90
15156;DHT22;7678;50.058;8.306;2022-10-31T12:15:30;18.00;99.90
15156;DHT22;7678;50.058;8.306;2022-10-31T12:18:15;17.90;99.90
15156;DHT22;7678;50.058;8.306;2022-10-31T12:20:54;17.90;99.90
15156;DHT22;7678;50.058;8.306;2022-10-31T12:23:33;18.00;99.90
15156;DHT22;7678;50.058;8.306;2022-10-31T12:26:16;17.90;99.90
15156;DHT22;7678;50.058;8.306;2022-10-31T12:31:53;18.10;99.90
15156;DHT22;7678;50.058;8.306;2022-10-31T12:37:06;17.80;99.90
15156;DHT22;7678;50.058;8.306;2022-10-31T12:39:44;17.90;99.90
15156;DHT22;7678;50.058;8.306;2022-10-31T12:42:27;18.00;99.90
15156;DHT22;7678;50.058;8.306;2022-10-31T12:45:18;18.00;99.90
15156;DHT22;7678;50.058;8.306;2022-10-31T12:48:26;18.10;99.90
15156;DHT22;7678;50.058;8.306;2022-10-31T12:51:00;18.30;99.90
15156;DHT22;7678;50.058;8.306;2022-10-31T12:53:44;18.50;99.90
15156;DHT22;7678;50.058;8.306;2022-10-31T12:56:25;18.50;99.90
15156;DHT22;7678;50.058;8.306;2022-10-31T12:59:03;18.50;99.90
15156;DHT22;7678;50.058;8.306;2022-10-31T13:01:34;18.40;99.90
15156;DHT22;7678;50.058;8.306;2022-10-31T13:04:05;18.10;99.90
15156;DHT22;7678;50.058;8.306;2022-10-31T13:06:42;18.10;99.90
15156;DHT22;7678;50.058;8.306;2022-10-31T13:09:17;18.10;99.90
15156;DHT22;7678;50.058;8.306;2022-10-31T13:11:47;18.00;99.90
15156;DHT22;7678;50.058;8.306;2022-10-31T13:14:23;17.90;99.90
15156;DHT22;7678;50.058;8.306;2022-10-31T13:16:52;17.90;99.90
15156;DHT22;7678;50.058;8.306;2022-10-31T13:19:25;17.80;99.90
15156;DHT22;7678;50.058;8.306;2022-10-31T13:21:58;17.80;99.90
15156;DHT22;7678;50.058;8.306;2022-10-31T13:24:33;17.80;99.90
15156;DHT22;7678;50.058;8.306;2022-10-31T13:27:09;17.70;99.90
15156;DHT22;7678;50.058;8.306;2022-10-31T13:29:43;17.70;99.90
15156;DHT22;7678;50.058;8.306;2022-10-31T13:32:14;17.70;99.90
15156;DHT22;7678;50.058;8.306;2022-10-31T13:34:46;17.70;99.90
15156;DHT22;7678;50.058;8.306;2022-10-31T13:37:30;17.70;99.90
15156;DHT22;7678;50.058;8.306;2022-10-31T13:40:09;17.70;99.90
15156;DHT22;7678;50.058;8.306;2022-10-31T13:42:53;17.80;99.90
15156;DHT22;7678;50.058;8.306;2022-10-31T13:45:24;17.80;99.90
15156;DHT22;7678;50.058;8.306;2022-10-31T13:47:57;17.80;99.90
15156;DHT22;7678;50.058;8.306;2022-10-31T13:50:27;17.70;99.90
15156;DHT22;7678;50.058;8.306;2022-10-31T13:53:19;17.60;99.90
15156;DHT22;7678;50.058;8.306;2022-10-31T13:56:01;17.60;99.90
15156;DHT22;7678;50.058;8.306;2022-10-31T13:58:30;17.30;99.90
15156;DHT22;7678;50.058;8.306;2022-10-31T14:01:12;17.30;99.90
15156;DHT22;7678;50.058;8.306;2022-10-31T14:03:45;17.40;99.90
15156;DHT22;7678;50.058;8.306;2022-10-31T14:06:37;17.40;99.90
15156;DHT22;7678;50.058;8.306;2022-10-31T14:09:21;17.40;99.90
15156;DHT22;7678;50.058;8.306;2022-10-31T14:11:52;17.40;99.90
15156;DHT22;7678;50.058;8.306;2022-10-31T14:14:21;17.40;99.90
15156;DHT22;7678;50.058;8.306;2022-10-31T14:16:55;17.50;99.90
15156;DHT22;7678;50.058;8.306;2022-10-31T14:19:27;17.50;99.90
15156;DHT22;7678;50.058;8.306;2022-10-31T14:21:55;17.40;99.90
15156;DHT22;7678;50.058;8.306;2022-10-31T14:24:44;17.50;99.90
15156;DHT22;7678;50.058;8.306;2022-10-31T14:27:44;17.40;99.90
15156;DHT22;7678;50.058;8.306;2022-10-31T14:30:30;17.60;99.90
15156;DHT22;7678;50.058;8.306;2022-10-31T14:33:00;17.70;99.90
15156;DHT22;7678;50.058;8.306;2022-10-31T14:35:43;17.80;99.90
15156;DHT22;7678;50.058;8.306;2022-10-31T14:41:17;17.90;99.90
15156;DHT22;7678;50.058;8.306;2022-10-31T14:46:57;18.00;99.90
15156;DHT22;7678;50.058;8.306;2022-10-31T14:49:45;17.90;99.90
15156;DHT22;7678;50.058;8.306;2022-10-31T14:52:17;17.90;99.90
15156;DHT22;7678;50.058;8.306;2022-10-31T14:54:56;17.80;99.90
15156;DHT22;7678;50.058;8.306;2022-10-31T14:57:30;17.60;99.90
15156;DHT22;7678;50.058;8.306;2022-10-31T15:00:06;17.40;99.90
15156;DHT22;7678;50.058;8.306;2022-10-31T15:02:43;17.20;99.90
15156;DHT22;7678;50.058;8.306;2022-10-31T15:05:23;17.00;99.90
15156;DHT22;7678;50.058;8.306;2022-10-31T15:07:58;16.70;99.90
15156;DHT22;7678;50.058;8.306;2022-10-31T15:10:30;16.70;99.90
15156;DHT22;7678;50.058;8.306;2022-10-31T15:13:15;16.60;99.90
15156;DHT22;7678;50.058;8.306;2022-10-31T15:15:48;16.50;99.90
15156;DHT22;7678;50.058;8.306;2022-10-31T15:18:20;16.30;99.90
15156;DHT22;7678;50.058;8.306;2022-10-31T15:20:50;16.30;99.90
15156;DHT22;7678;50.058;8.306;2022-10-31T15:23:37;16.20;99.90
15156;DHT22;7678;50.058;8.306;2022-10-31T15:26:15;16.20;99.90
15156;DHT22;7678;50.058;8.306;2022-10-31T15:28:56;16.20;99.90
15156;DHT22;7678;50.058;8.306;2022-10-31T15:31:32;16.20;99.90
15156;DHT22;7678;50.058;8.306;2022-10-31T15:34:03;16.20;99.90
15156;DHT22;7678;50.058;8.306;2022-10-31T15:36:33;16.10;99.90
15156;DHT22;7678;50.058;8.306;2022-10-31T15:39:04;16.10;99.90
15156;DHT22;7678;50.058;8.306;2022-10-31T15:41:41;15.90;99.90
15156;DHT22;7678;50.058;8.306;2022-10-31T15:44:23;16.00;99.90
15156;DHT22;7678;50.058;8.306;2022-10-31T15:47:06;16.00;99.90
15156;DHT22;7678;50.058;8.306;2022-10-31T15:49:48;15.90;99.90
15156;DHT22;7678;50.058;8.306;2022-10-31T15:52:26;15.80;99.90
15156;DHT22;7678;50.058;8.306;2022-10-31T15:55:00;15.90;99.90
15156;DHT22;7678;50.058;8.306;2022-10-31T15:57:28;15.90;99.90
15156;DHT22;7678;50.058;8.306;2022-10-31T15:59:57;16.00;99.90
15156;DHT22;7678;50.058;8.306;2022-10-31T16:02:27;15.90;99.90
15156;DHT22;7678;50.058;8.306;2022-10-31T16:04:57;16.00;99.90
15156;DHT22;7678;50.058;8.306;2022-10-31T16:07:25;16.00;99.90
15156;DHT22;7678;50.058;8.306;2022-10-31T16:09:55;15.90;99.90
15156;DHT22;7678;50.058;8.306;2022-10-31T16:12:25;15.80;99.90
15156;DHT22;7678;50.058;8.306;2022-10-31T16:14:59;15.90;99.90
15156;DHT22;7678;50.058;8.306;2022-10-31T16:17:28;16.00;99.90
15156;DHT22;7678;50.058;8.306;2022-10-31T16:19:58;15.90;99.90
15156;DHT22;7678;50.058;8.306;2022-10-31T16:22:29;15.80;99.90
15156;DHT22;7678;50.058;8.306;2022-10-31T16:25:02;15.70;99.90
15156;DHT22;7678;50.058;8.306;2022-10-31T16:27:34;15.60;99.90
15156;DHT22;7678;50.058;8.306;2022-10-31T16:30:28;15.70;99.90
15156;DHT22;7678;50.058;8.306;2022-10-31T16:32:58;15.80;99.90
15156;DHT22;7678;50.058;8.306;2022-10-31T16:35:32;15.90;99.90
15156;DHT22;7678;50.058;8.306;2022-10-31T16:38:01;15.90;99.90
15156;DHT22;7678;50.058;8.306;2022-10-31T16:40:31;15.80;99.90
15156;DHT22;7678;50.058;8.306;2022-10-31T16:43:04;15.70;99.90
15156;DHT22;7678;50.058;8.306;2022-10-31T16:45:33;15.60;99.90